createdAt,value
2023-02-14T00:00:51.422Z,103655.75
2023-02-14T00:03:18.784Z,103659.03
2023-02-14T00:05:46.036Z,103667.59
2023-02-14T00:08:13.426Z,103666.56
2023-02-14T00:10:40.693Z,103671.03
2023-02-14T00:13:07.935Z,103657.44
2023-02-14T00:15:35.170Z,103655.88
2023-02-14T00:18:03.895Z,103654.84
2023-02-14T00:20:31.362Z,103647.84
2023-02-14T00:23:00.850Z,103657.88
2023-02-14T00:25:28.148Z,103647.09
2023-02-14T00:27:55.747Z,103649.44
2023-02-14T00:30:23.231Z,103648.28
2023-02-14T00:32:50.628Z,103654.38
2023-02-14T00:35:18.050Z,103654.38
2023-02-14T00:37:48.491Z,103643.97
2023-02-14T00:40:16.071Z,103645.81
2023-02-14T00:42:43.420Z,103644.22
2023-02-14T00:45:10.765Z,103644.50
2023-02-14T00:47:38.049Z,103635.22
2023-02-14T00:50:05.771Z,103633.75
2023-02-14T00:52:33.076Z,103637.41
2023-02-14T00:55:00.304Z,103636.75
2023-02-14T00:57:27.605Z,103634.25
2023-02-14T00:59:54.857Z,103633.47
2023-02-14T01:02:22.175Z,103626.56
2023-02-14T01:04:49.430Z,103626.44
2023-02-14T01:07:16.750Z,103629.06
2023-02-14T01:09:44.010Z,103624.63
2023-02-14T01:12:11.309Z,103620.22
2023-02-14T01:14:38.789Z,103622.56
2023-02-14T01:17:06.062Z,103617.09
2023-02-14T01:19:33.401Z,103612.69
2023-02-14T01:22:00.978Z,103615.94
2023-02-14T01:24:28.422Z,103627.03
2023-02-14T01:26:55.814Z,103625.09
2023-02-14T01:29:23.131Z,103607.44
2023-02-14T01:31:52.929Z,103622.13
2023-02-14T01:34:20.173Z,103624.50
2023-02-14T01:36:47.504Z,103622.44
2023-02-14T01:39:15.518Z,103622.19
2023-02-14T01:41:48.638Z,103619.19
2023-02-14T01:44:19.808Z,103619.88
2023-02-14T01:46:47.393Z,103617.81
2023-02-14T01:49:18.490Z,103616.78
2023-02-14T01:51:52.861Z,103620.00
2023-02-14T01:54:25.002Z,103613.91
2023-02-14T01:57:01.033Z,103604.03
2023-02-14T01:59:36.067Z,103609.91
2023-02-14T02:02:04.613Z,103604.59
2023-02-14T02:04:40.752Z,103601.72
2023-02-14T02:07:12.384Z,103602.53
2023-02-14T02:09:49.162Z,103595.34
2023-02-14T02:12:16.531Z,103596.03
2023-02-14T02:14:44.309Z,103590.69
2023-02-14T02:17:11.515Z,103600.19
2023-02-14T02:19:56.982Z,103596.44
2023-02-14T02:22:55.154Z,103583.44
2023-02-14T02:25:41.068Z,103585.13
2023-02-14T02:28:20.668Z,103585.91
2023-02-14T02:30:51.008Z,103580.69
2023-02-14T02:33:48.847Z,103584.09
2023-02-14T02:36:41.025Z,103583.16
2023-02-14T02:39:16.681Z,103577.97
2023-02-14T02:42:26.538Z,103572.00
2023-02-14T02:45:11.953Z,103573.78
2023-02-14T02:48:11.370Z,103574.84
2023-02-14T02:51:00.524Z,103566.25
2023-02-14T02:54:01.060Z,103568.59
2023-02-14T02:56:46.695Z,103571.19
2023-02-14T02:59:28.670Z,103559.88
2023-02-14T03:02:00.194Z,103562.63
2023-02-14T03:04:47.268Z,103570.56
2023-02-14T03:07:33.131Z,103562.63
2023-02-14T03:10:03.359Z,103563.50
2023-02-14T03:12:33.633Z,103562.88
2023-02-14T03:15:13.151Z,103568.97
2023-02-14T03:18:07.481Z,103564.69
2023-02-14T03:20:34.673Z,103562.97
2023-02-14T03:23:12.659Z,103564.81
2023-02-14T03:25:46.930Z,103563.09
2023-02-14T03:28:37.295Z,103560.63
2023-02-14T03:31:24.622Z,103563.22
2023-02-14T03:34:10.447Z,103561.66
2023-02-14T03:36:43.576Z,103551.13
2023-02-14T03:39:17.963Z,103555.78
2023-02-14T03:41:56.821Z,103556.72
2023-02-14T03:44:28.536Z,103557.50
2023-02-14T03:47:07.348Z,103556.72
2023-02-14T03:49:40.933Z,103560.34
2023-02-14T03:52:10.772Z,103561.25
2023-02-14T03:54:38.737Z,103557.75
2023-02-14T03:57:15.953Z,103556.84
2023-02-14T03:59:44.490Z,103542.78
2023-02-14T04:02:37.484Z,103547.75
2023-02-14T04:05:12.124Z,103550.34
2023-02-14T04:07:56.862Z,103543.31
2023-02-14T04:10:25.411Z,103547.63
2023-02-14T04:12:53.098Z,103543.22
2023-02-14T04:15:20.520Z,103545.69
2023-02-14T04:18:06.423Z,103537.75
2023-02-14T04:20:34.520Z,103542.06
2023-02-14T04:23:03.415Z,103528.94
2023-02-14T04:25:31.275Z,103526.97
2023-02-14T04:27:58.500Z,103527.78
2023-02-14T04:30:25.909Z,103530.25
2023-02-14T04:32:53.186Z,103522.31
2023-02-14T04:35:20.512Z,103537.00
2023-02-14T04:37:47.866Z,103536.13
2023-02-14T04:40:17.526Z,103528.19
2023-02-14T04:42:45.769Z,103528.19
2023-02-14T04:45:13.613Z,103533.13
2023-02-14T04:47:40.913Z,103526.25
2023-02-14T04:50:08.736Z,103527.03
2023-02-14T04:52:36.379Z,103520.78
2023-02-14T04:55:04.885Z,103516.34
2023-02-14T04:57:33.178Z,103519.75
2023-02-14T05:00:00.781Z,103517.81
2023-02-14T05:02:28.143Z,103506.38
2023-02-14T05:04:55.418Z,103511.47
2023-02-14T05:07:22.711Z,103511.34
2023-02-14T05:09:50.022Z,103513.81
2023-02-14T05:12:17.546Z,103505.66
2023-02-14T05:14:44.871Z,103509.78
2023-02-14T05:17:12.133Z,103500.84
2023-02-14T05:19:39.628Z,103501.75
2023-02-14T05:22:06.949Z,103502.41
2023-02-14T05:24:34.351Z,103502.28
2023-02-14T05:27:01.669Z,103489.94
2023-02-14T05:29:29.014Z,103502.81
2023-02-14T05:31:56.206Z,103500.88
2023-02-14T05:34:25.660Z,103500.75
2023-02-14T05:36:54.991Z,103498.00
2023-02-14T05:39:22.549Z,103501.28
2023-02-14T05:41:49.826Z,103501.81
2023-02-14T05:44:17.164Z,103500.66
2023-02-14T05:46:44.489Z,103498.59
2023-02-14T05:49:12.890Z,103497.56
2023-02-14T05:51:40.327Z,103484.44
2023-02-14T05:54:09.412Z,103483.53
2023-02-14T05:56:38.274Z,103493.91
2023-02-14T05:59:05.564Z,103487.69
2023-02-14T06:01:32.846Z,103489.25
2023-02-14T06:04:00.157Z,103483.78
2023-02-14T06:06:27.497Z,103480.16
2023-02-14T06:08:54.752Z,103486.00
2023-02-14T06:11:22.026Z,103485.63
2023-02-14T06:13:49.218Z,103494.09
2023-02-14T06:16:17.095Z,103485.13
2023-02-14T06:18:44.424Z,103488.13
2023-02-14T06:21:11.754Z,103484.50
2023-02-14T06:23:39.031Z,103481.63
2023-02-14T06:26:06.337Z,103487.47
2023-02-14T06:28:33.760Z,103492.53
2023-02-14T06:31:01.460Z,103501.75
2023-02-14T06:33:28.954Z,103502.41
2023-02-14T06:35:56.204Z,103494.22
2023-02-14T06:38:23.461Z,103500.06
2023-02-14T06:40:51.687Z,103494.59
2023-02-14T06:43:18.983Z,103494.38
2023-02-14T06:45:47.008Z,103501.09
2023-02-14T06:48:16.880Z,103495.38
2023-02-14T06:50:44.150Z,103491.75
2023-02-14T06:53:11.688Z,103497.59
2023-02-14T06:55:38.971Z,103493.97
2023-02-14T06:58:06.346Z,103489.53
2023-02-14T07:00:33.742Z,103489.41
2023-02-14T07:03:01.035Z,103497.97
2023-02-14T07:05:28.510Z,103497.97
2023-02-14T07:07:55.695Z,103500.59
2023-02-14T07:10:23.245Z,103504.22
2023-02-14T07:12:51.003Z,103502.66
2023-02-14T07:15:18.997Z,103503.56
2023-02-14T07:17:46.446Z,103499.69
2023-02-14T07:20:13.883Z,103508.63
2023-02-14T07:22:41.283Z,103497.47
2023-02-14T07:25:08.750Z,103513.31
2023-02-14T07:27:36.041Z,103513.44
2023-02-14T07:30:04.943Z,103515.38
2023-02-14T07:32:32.880Z,103505.13
2023-02-14T07:35:00.328Z,103513.19
2023-02-14T07:37:27.555Z,103502.16
2023-02-14T07:39:54.759Z,103509.41
2023-02-14T07:42:22.077Z,103510.59
2023-02-14T07:44:49.334Z,103505.91
2023-02-14T07:47:16.803Z,103503.84
2023-02-14T07:49:44.077Z,103505.91
2023-02-14T07:52:13.437Z,103504.56
2023-02-14T07:54:40.790Z,103504.09
2023-02-14T07:57:08.213Z,103496.78
2023-02-14T07:59:35.798Z,103495.59
2023-02-14T08:02:03.422Z,103501.41
2023-02-14T08:04:32.934Z,103492.31
2023-02-14T08:07:01.204Z,103496.34
2023-02-14T08:09:28.555Z,103495.00
2023-02-14T08:12:16.845Z,103495.53
2023-02-14T08:14:44.740Z,103496.00
2023-02-14T08:17:13.721Z,103496.50
2023-02-14T08:19:41.043Z,103503.00
2023-02-14T08:22:08.878Z,103496.47
2023-02-14T08:24:36.546Z,103496.97
2023-02-14T08:27:03.935Z,103497.44
2023-02-14T08:29:31.272Z,103499.75
2023-02-14T08:32:03.270Z,103502.06
2023-02-14T08:34:30.621Z,103500.09
2023-02-14T08:36:58.100Z,103504.06
2023-02-14T08:39:25.330Z,103498.44
2023-02-14T08:41:52.605Z,103496.34
2023-02-14T08:44:22.695Z,103492.28
2023-02-14T08:46:49.964Z,103499.66
2023-02-14T08:49:17.232Z,103497.41
2023-02-14T08:51:44.577Z,103493.47
2023-02-14T08:54:11.906Z,103492.09
2023-02-14T08:56:40.620Z,103496.88
2023-02-14T08:59:07.842Z,103491.22
2023-02-14T09:01:36.471Z,103492.50
2023-02-14T09:04:03.989Z,103492.06
2023-02-14T09:06:31.516Z,103498.53
2023-02-14T09:09:00.839Z,103490.84
2023-02-14T09:11:28.947Z,103489.47
2023-02-14T09:13:57.256Z,103490.88
2023-02-14T09:16:25.542Z,103481.59
2023-02-14T09:18:54.639Z,103488.16
2023-02-14T09:21:25.560Z,103486.81
2023-02-14T09:23:53.099Z,103487.38
2023-02-14T09:26:20.918Z,103487.81
2023-02-14T09:28:48.567Z,103487.38
2023-02-14T09:31:18.754Z,103493.16
2023-02-14T09:34:05.630Z,103490.44
2023-02-14T09:36:51.903Z,103493.81
2023-02-14T09:39:19.512Z,103483.41
2023-02-14T09:41:49.621Z,103484.06
2023-02-14T09:44:35.418Z,103483.81
2023-02-14T09:47:48.253Z,103478.53
2023-02-14T09:50:33.920Z,103477.28
2023-02-14T09:53:08.173Z,103477.53
2023-02-14T09:56:08.179Z,103472.38
2023-02-14T09:59:00.918Z,103472.84
2023-02-14T10:02:19.002Z,103470.88
2023-02-14T10:05:23.972Z,103477.53
2023-02-14T10:08:09.698Z,103475.22
2023-02-14T10:10:42.991Z,103477.34
2023-02-14T10:13:20.642Z,103471.56
2023-02-14T10:16:18.341Z,103470.38
2023-02-14T10:19:15.531Z,103461.34
2023-02-14T10:21:48.847Z,103460.09
2023-02-14T10:24:54.068Z,103464.09
2023-02-14T10:27:42.368Z,103459.22
2023-02-14T10:30:15.592Z,103455.38
2023-02-14T10:32:47.400Z,103455.91
2023-02-14T10:35:29.682Z,103449.34
2023-02-14T10:37:59.881Z,103444.56
2023-02-14T10:41:02.354Z,103454.00
2023-02-14T10:43:50.807Z,103449.47
2023-02-14T10:46:39.911Z,103452.69
2023-02-14T10:49:25.788Z,103440.09
2023-02-14T10:52:00.104Z,103442.31
2023-02-14T10:54:55.807Z,103450.84
2023-02-14T10:57:34.889Z,103445.31
2023-02-14T11:00:06.927Z,103427.56
2023-02-14T11:02:44.973Z,103439.44
2023-02-14T11:05:46.935Z,103429.44
2023-02-14T11:08:35.527Z,103428.31
2023-02-14T11:11:11.592Z,103430.59
2023-02-14T11:13:39.960Z,103431.84
2023-02-14T11:16:18.271Z,103422.72
2023-02-14T11:18:45.626Z,103424.91
2023-02-14T11:21:21.622Z,103418.25
2023-02-14T11:23:51.161Z,103413.38
2023-02-14T11:26:37.363Z,103413.81
2023-02-14T11:29:13.555Z,103404.53
2023-02-14T11:31:42.365Z,103404.88
2023-02-14T11:34:34.067Z,103404.44
2023-02-14T11:37:01.500Z,103396.91
2023-02-14T11:39:35.696Z,103399.09
2023-02-14T11:42:05.771Z,103387.94
2023-02-14T11:44:37.449Z,103377.75
2023-02-14T11:47:25.096Z,103374.56
2023-02-14T11:50:10.986Z,103372.94
2023-02-14T11:52:56.709Z,103363.50
2023-02-14T11:55:29.670Z,103357.72
2023-02-14T11:57:58.262Z,103361.66
2023-02-14T12:00:27.082Z,103360.19
2023-02-14T12:02:56.091Z,103362.06
2023-02-14T12:05:45.165Z,103358.00
2023-02-14T12:08:12.945Z,103360.78
2023-02-14T12:10:43.848Z,103352.28
2023-02-14T12:13:11.126Z,103350.78
2023-02-14T12:15:49.188Z,103350.22
2023-02-14T12:18:43.010Z,103345.38
2023-02-14T12:21:17.429Z,103344.75
2023-02-14T12:23:56.143Z,103341.47
2023-02-14T12:26:43.454Z,103333.91
2023-02-14T12:29:38.856Z,103337.59
2023-02-14T12:32:19.806Z,103337.03
2023-02-14T12:34:47.984Z,103330.13
2023-02-14T12:37:22.456Z,103325.09
2023-02-14T12:40:15.406Z,103325.44
2023-02-14T12:43:30.033Z,103325.84
2023-02-14T12:46:09.800Z,103308.56
2023-02-14T12:49:11.225Z,103308.94
2023-02-14T12:51:43.143Z,103308.19
2023-02-14T12:54:41.436Z,103299.53
2023-02-14T12:57:33.071Z,103298.94
2023-02-14T13:00:03.542Z,103293.94
2023-02-14T13:02:57.600Z,103288.81
2023-02-14T13:06:02.169Z,103287.19
2023-02-14T13:09:03.481Z,103275.03
2023-02-14T13:11:56.920Z,103279.44
2023-02-14T13:14:42.485Z,103276.97
2023-02-14T13:17:25.235Z,103271.03
2023-02-14T13:20:14.319Z,103271.03
2023-02-14T13:22:43.189Z,103260.59
2023-02-14T13:25:33.877Z,103255.44
2023-02-14T13:28:05.709Z,103253.84
2023-02-14T13:30:38.663Z,103247.81
2023-02-14T13:33:09.728Z,103249.69
2023-02-14T13:35:37.749Z,103240.31
2023-02-14T13:38:13.237Z,103247.44
2023-02-14T13:40:41.171Z,103245.78
2023-02-14T13:43:08.825Z,103244.13
2023-02-14T13:45:37.295Z,103236.22
2023-02-14T13:48:10.616Z,103237.16
2023-02-14T13:50:52.585Z,103241.56
2023-02-14T13:53:41.376Z,103239.88
2023-02-14T13:56:17.511Z,103231.03
2023-02-14T13:59:05.713Z,103241.56
2023-02-14T14:01:32.940Z,103230.16
2023-02-14T14:04:05.131Z,103235.41
2023-02-14T14:07:03.707Z,103239.88
2023-02-14T14:09:43.159Z,103236.22
2023-02-14T14:12:29.193Z,103235.25
2023-02-14T14:15:05.693Z,103232.50
2023-02-14T14:17:35.807Z,103233.31
2023-02-14T14:20:26.019Z,103220.94
2023-02-14T14:22:55.838Z,103226.28
2023-02-14T14:25:39.218Z,103218.31
2023-02-14T14:28:22.216Z,103212.16
2023-02-14T14:30:51.382Z,103212.06
2023-02-14T14:33:33.704Z,103210.25
2023-02-14T14:36:06.679Z,103212.88
2023-02-14T14:38:46.478Z,103209.34
2023-02-14T14:41:14.207Z,103202.28
2023-02-14T14:43:42.164Z,103211.03
2023-02-14T14:46:12.398Z,103209.19
2023-02-14T14:48:42.926Z,103211.84
2023-02-14T14:51:24.243Z,103202.16
2023-02-14T14:54:00.101Z,103201.19
2023-02-14T14:56:31.319Z,103201.09
2023-02-14T14:59:18.177Z,103196.63
2023-02-14T15:01:50.045Z,103200.88
2023-02-14T15:04:24.202Z,103193.91
2023-02-14T15:06:52.277Z,103192.94
2023-02-14T15:09:24.284Z,103191.13
2023-02-14T15:12:12.621Z,103190.16
2023-02-14T15:14:43.637Z,103192.69
2023-02-14T15:17:19.941Z,103184.72
2023-02-14T15:19:54.029Z,103190.81
2023-02-14T15:22:24.285Z,103184.69
2023-02-14T15:24:52.691Z,103188.94
2023-02-14T15:27:25.316Z,103180.06
2023-02-14T15:30:04.389Z,103178.28
2023-02-14T15:32:34.639Z,103173.84
2023-02-14T15:35:05.827Z,103187.75
2023-02-14T15:37:33.698Z,103190.28
2023-02-14T15:40:02.773Z,103177.03
2023-02-14T15:42:33.103Z,103176.88
2023-02-14T15:45:29.647Z,103176.69
2023-02-14T15:48:02.509Z,103166.88
2023-02-14T15:50:51.843Z,103171.88
2023-02-14T15:53:19.106Z,103178.72
2023-02-14T15:55:51.825Z,103174.06
2023-02-14T15:58:23.366Z,103176.50
2023-02-14T16:00:52.550Z,103172.75
2023-02-14T16:03:23.466Z,103170.78
2023-02-14T16:05:51.768Z,103173.22
2023-02-14T16:08:22.057Z,103184.38
2023-02-14T16:11:02.796Z,103183.16
2023-02-14T16:13:38.685Z,103181.19
2023-02-14T16:16:09.387Z,103179.97
2023-02-14T16:18:50.300Z,103172.69
2023-02-14T16:21:23.720Z,103182.78
2023-02-14T16:24:15.854Z,103175.44
2023-02-14T16:26:44.904Z,103170.69
2023-02-14T16:29:17.632Z,103176.44
2023-02-14T16:32:14.207Z,103170.78
2023-02-14T16:34:35.563Z,103165.03
2023-02-14T16:37:09.309Z,103162.81
2023-02-14T16:39:39.325Z,103167.56
2023-02-14T16:42:14.700Z,103168.06
2023-02-14T16:44:41.930Z,103176.31
2023-02-14T16:47:11.387Z,103169.78
2023-02-14T16:49:39.177Z,103177.13
2023-02-14T16:52:10.983Z,103177.50
2023-02-14T16:54:38.309Z,103168.31
2023-02-14T16:57:06.398Z,103173.13
2023-02-14T16:59:33.708Z,103182.44
2023-02-14T17:02:02.268Z,103176.75
2023-02-14T17:04:29.587Z,103168.56
2023-02-14T17:06:57.558Z,103172.44
2023-02-14T17:09:29.776Z,103171.19
2023-02-14T17:12:00.831Z,103172.53
2023-02-14T17:14:35.201Z,103165.16
2023-02-14T17:17:02.707Z,103167.50
2023-02-14T17:19:31.985Z,103171.50
2023-02-14T17:22:01.606Z,103178.16
2023-02-14T17:24:29.712Z,103167.41
2023-02-14T17:26:56.952Z,103167.09
2023-02-14T17:29:24.248Z,103177.22
2023-02-14T17:31:51.629Z,103176.81
2023-02-14T17:34:19.309Z,103183.50
2023-02-14T17:36:46.584Z,103182.22
2023-02-14T17:39:14.881Z,103174.91
2023-02-14T17:41:42.220Z,103178.06
2023-02-14T17:44:09.407Z,103183.81
2023-02-14T17:46:36.837Z,103187.94
2023-02-14T17:49:04.162Z,103183.25
2023-02-14T17:51:31.524Z,103189.09
2023-02-14T17:53:59.114Z,103187.91
2023-02-14T17:56:26.984Z,103185.91
2023-02-14T17:58:55.315Z,103185.75
2023-02-14T18:01:25.716Z,103186.25
2023-02-14T18:03:56.166Z,103177.22
2023-02-14T18:06:23.776Z,103179.56
2023-02-14T18:08:57.081Z,103197.63
2023-02-14T18:11:27.506Z,103185.97
2023-02-14T18:13:56.097Z,103182.16
2023-02-14T18:16:24.951Z,103185.41
2023-02-14T18:18:53.678Z,103186.91
2023-02-14T18:21:21.846Z,103177.19
2023-02-14T18:23:49.218Z,103184.81
2023-02-14T18:26:18.534Z,103184.53
2023-02-14T18:28:46.481Z,103179.91
2023-02-14T18:31:16.614Z,103179.69
2023-02-14T18:33:46.566Z,103174.97
2023-02-14T18:36:17.324Z,103166.97
2023-02-14T18:38:45.904Z,103173.59
2023-02-14T18:41:19.332Z,103174.22
2023-02-14T18:43:47.431Z,103180.81
2023-02-14T18:46:24.949Z,103179.72
2023-02-14T18:48:52.638Z,103170.66
2023-02-14T18:51:23.633Z,103169.56
2023-02-14T18:53:54.931Z,103165.88
2023-02-14T18:56:30.741Z,103162.94
2023-02-14T18:59:07.434Z,103162.72
2023-02-14T19:01:37.967Z,103156.44
2023-02-14T19:04:08.636Z,103158.81
2023-02-14T19:06:36.659Z,103159.53
2023-02-14T19:09:08.697Z,103149.66
2023-02-14T19:11:36.303Z,103149.47
2023-02-14T19:14:09.907Z,103150.16
2023-02-14T19:16:42.243Z,103154.31
2023-02-14T19:19:10.650Z,103148.75
2023-02-14T19:21:38.129Z,103148.66
2023-02-14T19:24:09.386Z,103145.75
2023-02-14T19:26:40.398Z,103144.63
2023-02-14T19:29:11.922Z,103145.22
2023-02-14T19:31:42.916Z,103149.44
2023-02-14T19:34:19.256Z,103151.06
2023-02-14T19:36:48.193Z,103140.41
2023-02-14T19:39:16.172Z,103143.72
2023-02-14T19:41:43.445Z,103133.78
2023-02-14T19:44:13.864Z,103145.81
2023-02-14T19:46:42.891Z,103137.88
2023-02-14T19:49:18.810Z,103130.66
2023-02-14T19:51:47.549Z,103131.44
2023-02-14T19:54:15.489Z,103129.53
2023-02-14T19:56:45.016Z,103121.38
2023-02-14T19:59:16.299Z,103131.59
2023-02-14T20:01:48.593Z,103131.38
2023-02-14T20:04:19.800Z,103125.16
2023-02-14T20:06:48.442Z,103127.56
2023-02-14T20:09:16.826Z,103124.81
2023-02-14T20:11:54.418Z,103124.63
2023-02-14T20:14:50.304Z,103128.97
2023-02-14T20:17:18.781Z,103116.47
2023-02-14T20:19:46.607Z,103119.00
2023-02-14T20:22:14.022Z,103110.16
2023-02-14T20:24:41.584Z,103111.75
2023-02-14T20:27:08.951Z,103113.34
2023-02-14T20:29:38.848Z,103103.63
2023-02-14T20:32:06.460Z,103094.69
2023-02-14T20:34:34.319Z,103091.88
2023-02-14T20:37:01.641Z,103097.78
2023-02-14T20:39:34.029Z,103091.44
2023-02-14T20:42:01.928Z,103085.13
2023-02-14T20:44:29.378Z,103085.00
2023-02-14T20:46:57.558Z,103084.91
2023-02-14T20:49:26.533Z,103083.91
2023-02-14T20:51:54.397Z,103084.69
2023-02-14T20:54:24.161Z,103080.25
2023-02-14T20:56:51.472Z,103081.88
2023-02-14T20:59:24.382Z,103080.84
2023-02-14T21:01:51.736Z,103084.16
2023-02-14T21:04:19.102Z,103083.03
2023-02-14T21:06:48.714Z,103080.22
2023-02-14T21:09:18.651Z,103075.69
2023-02-14T21:11:45.943Z,103069.47
2023-02-14T21:14:13.434Z,103075.38
2023-02-14T21:16:40.713Z,103071.84
2023-02-14T21:19:08.259Z,103074.25
2023-02-14T21:21:37.167Z,103086.28
2023-02-14T21:24:07.832Z,103075.63
2023-02-14T21:26:35.193Z,103077.22
2023-02-14T21:29:03.104Z,103074.38
2023-02-14T21:31:31.862Z,103068.97
2023-02-14T21:34:01.244Z,103069.66
2023-02-14T21:36:35.568Z,103067.75
2023-02-14T21:39:04.484Z,103067.63
2023-02-14T21:41:33.007Z,103064.00
2023-02-14T21:44:02.044Z,103059.50
2023-02-14T21:46:32.163Z,103059.28
2023-02-14T21:49:20.049Z,103053.84
2023-02-14T21:51:48.025Z,103070.16
2023-02-14T21:54:16.214Z,103064.69
2023-02-14T21:56:43.980Z,103059.28
2023-02-14T21:59:12.440Z,103053.84
2023-02-14T22:01:41.682Z,103053.75
2023-02-14T22:04:11.015Z,103061.34
2023-02-14T22:06:39.951Z,103043.78
2023-02-14T22:09:07.790Z,103048.00
2023-02-14T22:11:35.133Z,103048.69
2023-02-14T22:14:03.025Z,103043.25
2023-02-14T22:16:30.930Z,103048.31
2023-02-14T22:18:58.267Z,103046.41
2023-02-14T22:21:27.310Z,103056.72
2023-02-14T22:23:55.731Z,103053.09
2023-02-14T22:26:32.258Z,103052.06
2023-02-14T22:29:01.258Z,103037.16
2023-02-14T22:31:32.325Z,103043.94
2023-02-14T22:33:59.744Z,103042.94
2023-02-14T22:36:26.989Z,103040.22
2023-02-14T22:38:54.224Z,103035.81
2023-02-14T22:41:24.928Z,103034.66
2023-02-14T22:43:52.990Z,103041.44
2023-02-14T22:46:23.742Z,103033.44
2023-02-14T22:48:52.128Z,103036.72
2023-02-14T22:51:26.701Z,103027.00
2023-02-14T22:53:56.742Z,103027.69
2023-02-14T22:56:27.266Z,103029.16
2023-02-14T22:58:56.036Z,103041.22
2023-02-14T23:01:24.518Z,103036.72
2023-02-14T23:03:56.621Z,103029.69
2023-02-14T23:06:28.466Z,103023.47
2023-02-14T23:08:56.469Z,103026.75
2023-02-14T23:11:26.874Z,103024.03
2023-02-14T23:14:13.702Z,103023.16
2023-02-14T23:17:00.612Z,103022.13
2023-02-14T23:19:48.894Z,103024.50
2023-02-14T23:22:19.859Z,103027.09
2023-02-14T23:24:49.152Z,103017.38
2023-02-14T23:27:18.850Z,103024.16
2023-02-14T23:29:46.484Z,103018.84
2023-02-14T23:32:14.567Z,103025.75
2023-02-14T23:34:43.251Z,103019.53
2023-02-14T23:37:11.535Z,103022.78
2023-02-14T23:39:39.153Z,103025.25
2023-02-14T23:42:12.210Z,103021.75
2023-02-14T23:44:40.369Z,103013.84
2023-02-14T23:47:08.814Z,103013.63
2023-02-14T23:49:38.112Z,103010.91
2023-02-14T23:52:08.521Z,103013.41
2023-02-14T23:54:36.428Z,103001.22
2023-02-14T23:57:04.522Z,103002.75
2023-02-14T23:59:31.851Z,103001.75
